Terminal Aerodrome Forecast
Issued by NWS Indianapolis, IN

Home | Current Version | Previous Version | Text Only | Print | Product List | Glossary On
Versions: 1 2 3 4 5 6 7 8 9 10 11 12 13 14 15 16 17 18 19 20 21 22 23 24 25 26
000
FTUS43 KIND 230200 AAA
TAFIND
TAF AMD
KIND 230214Z 2302/2406 13012KT 5SM -RA BKN025 OVC050
     FM230600 15012KT 4SM -RA BR OVC007 WS015/20040KT
     FM230900 17012G20KT 4SM -RA BR OVC009
     FM231400 21008KT 5SM BR VCSH OVC025
     FM231900 VRB04KT P6SM OVC030
     FM240300 19004KT 4SM -RA OVC015=

USA.gov is the U.S. government's official web portal to all federal, state and local government web resources and services.